sensor_id;sensor_type;location;lat;lon;timestamp;P1;durP1;ratioP1;P2;durP2;ratioP2
16963;SDS011;8598;50.508;10.436;2023-07-29T00:02:09;2.60;;;2.37;;
16963;SDS011;8598;50.508;10.436;2023-07-29T00:04:36;2.40;;;2.20;;
16963;SDS011;8598;50.508;10.436;2023-07-29T00:07:03;2.50;;;2.17;;
16963;SDS011;8598;50.508;10.436;2023-07-29T00:09:30;2.87;;;2.27;;
16963;SDS011;8598;50.508;10.436;2023-07-29T00:11:58;3.10;;;1.97;;
16963;SDS011;8598;50.508;10.436;2023-07-29T00:14:25;4.13;;;2.50;;
16963;SDS011;8598;50.508;10.436;2023-07-29T00:16:52;3.20;;;2.90;;
16963;SDS011;8598;50.508;10.436;2023-07-29T00:19:18;2.93;;;2.73;;
16963;SDS011;8598;50.508;10.436;2023-07-29T00:21:48;3.30;;;3.00;;
16963;SDS011;8598;50.508;10.436;2023-07-29T00:24:15;4.93;;;3.43;;
16963;SDS011;8598;50.508;10.436;2023-07-29T00:26:41;4.07;;;3.17;;
16963;SDS011;8598;50.508;10.436;2023-07-29T00:29:09;3.80;;;3.30;;
16963;SDS011;8598;50.508;10.436;2023-07-29T00:31:36;3.40;;;3.10;;
16963;SDS011;8598;50.508;10.436;2023-07-29T00:34:03;3.17;;;2.63;;
16963;SDS011;8598;50.508;10.436;2023-07-29T00:36:29;7.40;;;3.23;;
16963;SDS011;8598;50.508;10.436;2023-07-29T00:38:56;3.53;;;3.23;;
16963;SDS011;8598;50.508;10.436;2023-07-29T00:41:23;5.87;;;3.33;;
16963;SDS011;8598;50.508;10.436;2023-07-29T00:43:50;4.90;;;3.20;;
16963;SDS011;8598;50.508;10.436;2023-07-29T00:46:18;5.67;;;3.73;;
16963;SDS011;8598;50.508;10.436;2023-07-29T00:48:47;8.57;;;3.80;;
16963;SDS011;8598;50.508;10.436;2023-07-29T00:51:14;4.30;;;3.87;;
16963;SDS011;8598;50.508;10.436;2023-07-29T00:53:40;6.80;;;3.63;;
16963;SDS011;8598;50.508;10.436;2023-07-29T00:56:07;5.63;;;3.80;;
16963;SDS011;8598;50.508;10.436;2023-07-29T00:58:34;5.83;;;3.80;;
16963;SDS011;8598;50.508;10.436;2023-07-29T01:01:01;4.30;;;3.70;;
16963;SDS011;8598;50.508;10.436;2023-07-29T01:03:29;10.63;;;4.37;;
16963;SDS011;8598;50.508;10.436;2023-07-29T01:05:59;6.07;;;4.10;;
16963;SDS011;8598;50.508;10.436;2023-07-29T01:08:33;5.77;;;3.47;;
16963;SDS011;8598;50.508;10.436;2023-07-29T01:11:08;5.60;;;4.13;;
16963;SDS011;8598;50.508;10.436;2023-07-29T01:13:44;6.17;;;3.90;;
16963;SDS011;8598;50.508;10.436;2023-07-29T01:16:19;6.43;;;5.27;;
16963;SDS011;8598;50.508;10.436;2023-07-29T01:18:51;5.90;;;4.00;;
16963;SDS011;8598;50.508;10.436;2023-07-29T01:21:19;8.33;;;4.33;;
16963;SDS011;8598;50.508;10.436;2023-07-29T01:23:50;6.83;;;4.83;;
16963;SDS011;8598;50.508;10.436;2023-07-29T01:26:18;6.67;;;4.50;;
16963;SDS011;8598;50.508;10.436;2023-07-29T01:28:45;5.63;;;5.10;;
16963;SDS011;8598;50.508;10.436;2023-07-29T01:31:12;8.87;;;4.97;;
16963;SDS011;8598;50.508;10.436;2023-07-29T01:33:46;6.57;;;4.57;;
16963;SDS011;8598;50.508;10.436;2023-07-29T01:36:21;9.30;;;5.00;;
16963;SDS011;8598;50.508;10.436;2023-07-29T01:38:51;7.43;;;5.20;;
16963;SDS011;8598;50.508;10.436;2023-07-29T01:41:20;8.93;;;4.83;;
16963;SDS011;8598;50.508;10.436;2023-07-29T01:43:48;5.63;;;3.97;;
16963;SDS011;8598;50.508;10.436;2023-07-29T01:46:16;4.70;;;4.30;;
16963;SDS011;8598;50.508;10.436;2023-07-29T01:48:42;6.90;;;4.20;;
16963;SDS011;8598;50.508;10.436;2023-07-29T01:51:10;4.47;;;3.93;;
16963;SDS011;8598;50.508;10.436;2023-07-29T01:53:38;5.17;;;3.77;;
16963;SDS011;8598;50.508;10.436;2023-07-29T01:56:06;4.10;;;3.47;;
16963;SDS011;8598;50.508;10.436;2023-07-29T01:58:32;4.80;;;4.40;;
16963;SDS011;8598;50.508;10.436;2023-07-29T02:00:59;8.17;;;4.43;;
16963;SDS011;8598;50.508;10.436;2023-07-29T02:03:26;5.20;;;4.30;;
16963;SDS011;8598;50.508;10.436;2023-07-29T02:05:53;7.83;;;4.27;;
16963;SDS011;8598;50.508;10.436;2023-07-29T02:08:19;8.00;;;4.60;;
16963;SDS011;8598;50.508;10.436;2023-07-29T02:10:46;9.53;;;3.97;;
16963;SDS011;8598;50.508;10.436;2023-07-29T02:13:15;4.17;;;3.77;;
16963;SDS011;8598;50.508;10.436;2023-07-29T02:15:41;4.07;;;3.77;;
16963;SDS011;8598;50.508;10.436;2023-07-29T02:18:09;4.20;;;3.87;;
16963;SDS011;8598;50.508;10.436;2023-07-29T02:20:35;4.90;;;4.50;;
16963;SDS011;8598;50.508;10.436;2023-07-29T02:23:02;5.93;;;4.20;;
16963;SDS011;8598;50.508;10.436;2023-07-29T02:25:29;6.17;;;4.20;;
16963;SDS011;8598;50.508;10.436;2023-07-29T02:27:56;8.90;;;3.40;;
16963;SDS011;8598;50.508;10.436;2023-07-29T02:30:24;3.93;;;3.60;;
16963;SDS011;8598;50.508;10.436;2023-07-29T02:32:51;4.80;;;3.70;;
16963;SDS011;8598;50.508;10.436;2023-07-29T02:35:17;5.37;;;3.80;;
16963;SDS011;8598;50.508;10.436;2023-07-29T02:37:44;7.57;;;3.93;;
16963;SDS011;8598;50.508;10.436;2023-07-29T02:40:11;5.57;;;4.40;;
16963;SDS011;8598;50.508;10.436;2023-07-29T02:42:38;4.33;;;4.00;;
16963;SDS011;8598;50.508;10.436;2023-07-29T02:45:05;4.23;;;3.90;;
16963;SDS011;8598;50.508;10.436;2023-07-29T02:47:36;4.80;;;4.40;;
16963;SDS011;8598;50.508;10.436;2023-07-29T02:50:03;4.10;;;3.70;;
16963;SDS011;8598;50.508;10.436;2023-07-29T02:52:30;3.90;;;3.50;;
16963;SDS011;8598;50.508;10.436;2023-07-29T02:54:57;5.57;;;4.03;;
16963;SDS011;8598;50.508;10.436;2023-07-29T02:57:24;5.43;;;4.17;;
16963;SDS011;8598;50.508;10.436;2023-07-29T02:59:50;5.17;;;3.63;;
16963;SDS011;8598;50.508;10.436;2023-07-29T03:02:17;4.23;;;3.60;;
16963;SDS011;8598;50.508;10.436;2023-07-29T03:04:45;4.43;;;3.40;;
16963;SDS011;8598;50.508;10.436;2023-07-29T03:07:14;3.43;;;3.13;;
16963;SDS011;8598;50.508;10.436;2023-07-29T03:09:41;3.53;;;3.23;;
16963;SDS011;8598;50.508;10.436;2023-07-29T03:12:09;4.03;;;3.27;;
16963;SDS011;8598;50.508;10.436;2023-07-29T03:14:36;3.63;;;3.33;;
16963;SDS011;8598;50.508;10.436;2023-07-29T03:17:02;4.00;;;3.20;;
16963;SDS011;8598;50.508;10.436;2023-07-29T03:19:30;5.43;;;3.57;;
16963;SDS011;8598;50.508;10.436;2023-07-29T03:21:58;3.83;;;3.53;;
16963;SDS011;8598;50.508;10.436;2023-07-29T03:24:24;8.10;;;4.13;;
16963;SDS011;8598;50.508;10.436;2023-07-29T03:26:51;6.33;;;3.10;;
16963;SDS011;8598;50.508;10.436;2023-07-29T03:29:18;8.47;;;3.63;;
16963;SDS011;8598;50.508;10.436;2023-07-29T03:31:44;6.77;;;3.17;;
16963;SDS011;8598;50.508;10.436;2023-07-29T03:34:11;3.67;;;3.37;;
16963;SDS011;8598;50.508;10.436;2023-07-29T03:36:38;3.33;;;3.03;;
16963;SDS011;8598;50.508;10.436;2023-07-29T03:39:06;7.03;;;3.97;;
16963;SDS011;8598;50.508;10.436;2023-07-29T03:41:33;5.40;;;3.77;;
16963;SDS011;8598;50.508;10.436;2023-07-29T03:44:00;3.83;;;3.17;;
16963;SDS011;8598;50.508;10.436;2023-07-29T03:46:27;5.93;;;4.07;;
16963;SDS011;8598;50.508;10.436;2023-07-29T03:48:53;5.33;;;3.97;;
16963;SDS011;8598;50.508;10.436;2023-07-29T03:51:20;8.30;;;4.13;;
16963;SDS011;8598;50.508;10.436;2023-07-29T03:53:48;5.03;;;4.43;;
16963;SDS011;8598;50.508;10.436;2023-07-29T03:56:16;5.00;;;3.20;;
16963;SDS011;8598;50.508;10.436;2023-07-29T03:58:42;5.00;;;3.70;;
16963;SDS011;8598;50.508;10.436;2023-07-29T04:01:09;5.27;;;3.33;;
16963;SDS011;8598;50.508;10.436;2023-07-29T04:03:36;5.37;;;4.00;;
16963;SDS011;8598;50.508;10.436;2023-07-29T04:06:06;4.07;;;3.67;;
16963;SDS011;8598;50.508;10.436;2023-07-29T04:08:32;5.17;;;3.63;;
16963;SDS011;8598;50.508;10.436;2023-07-29T04:10:59;5.43;;;3.83;;
16963;SDS011;8598;50.508;10.436;2023-07-29T04:13:27;4.20;;;3.80;;
16963;SDS011;8598;50.508;10.436;2023-07-29T04:15:54;7.23;;;4.30;;
16963;SDS011;8598;50.508;10.436;2023-07-29T04:18:20;4.33;;;3.93;;
16963;SDS011;8598;50.508;10.436;2023-07-29T04:20:47;7.30;;;4.37;;
16963;SDS011;8598;50.508;10.436;2023-07-29T04:23:14;4.67;;;4.27;;
16963;SDS011;8598;50.508;10.436;2023-07-29T04:25:41;3.93;;;3.50;;
16963;SDS011;8598;50.508;10.436;2023-07-29T04:28:07;4.47;;;3.77;;
16963;SDS011;8598;50.508;10.436;2023-07-29T04:30:35;7.90;;;4.00;;
16963;SDS011;8598;50.508;10.436;2023-07-29T04:33:02;4.47;;;4.07;;
16963;SDS011;8598;50.508;10.436;2023-07-29T04:35:29;5.70;;;3.93;;
16963;SDS011;8598;50.508;10.436;2023-07-29T04:37:56;4.27;;;3.87;;
16963;SDS011;8598;50.508;10.436;2023-07-29T04:40:22;5.90;;;3.93;;
16963;SDS011;8598;50.508;10.436;2023-07-29T04:42:50;6.47;;;3.83;;
16963;SDS011;8598;50.508;10.436;2023-07-29T04:45:17;12.20;;;3.50;;
16963;SDS011;8598;50.508;10.436;2023-07-29T04:47:45;4.90;;;4.03;;
16963;SDS011;8598;50.508;10.436;2023-07-29T04:50:12;4.13;;;3.30;;
16963;SDS011;8598;50.508;10.436;2023-07-29T04:52:39;5.07;;;4.27;;
16963;SDS011;8598;50.508;10.436;2023-07-29T04:55:05;4.50;;;4.03;;
16963;SDS011;8598;50.508;10.436;2023-07-29T04:57:33;7.83;;;3.80;;
16963;SDS011;8598;50.508;10.436;2023-07-29T04:59:59;5.07;;;4.43;;
16963;SDS011;8598;50.508;10.436;2023-07-29T05:02:26;4.27;;;3.87;;
16963;SDS011;8598;50.508;10.436;2023-07-29T05:04:54;4.40;;;4.00;;
16963;SDS011;8598;50.508;10.436;2023-07-29T05:07:21;6.43;;;4.20;;
16963;SDS011;8598;50.508;10.436;2023-07-29T05:09:47;6.40;;;4.80;;
16963;SDS011;8598;50.508;10.436;2023-07-29T05:12:14;5.40;;;4.83;;
16963;SDS011;8598;50.508;10.436;2023-07-29T05:14:41;7.23;;;5.73;;
16963;SDS011;8598;50.508;10.436;2023-07-29T05:17:08;5.47;;;4.97;;
16963;SDS011;8598;50.508;10.436;2023-07-29T05:19:34;21.83;;;5.80;;
16963;SDS011;8598;50.508;10.436;2023-07-29T05:22:03;4.73;;;4.23;;
16963;SDS011;8598;50.508;10.436;2023-07-29T05:24:30;4.17;;;3.77;;
16963;SDS011;8598;50.508;10.436;2023-07-29T05:26:56;6.87;;;3.53;;
16963;SDS011;8598;50.508;10.436;2023-07-29T05:29:23;4.83;;;3.83;;
16963;SDS011;8598;50.508;10.436;2023-07-29T05:31:50;6.67;;;5.57;;
16963;SDS011;8598;50.508;10.436;2023-07-29T05:34:16;5.80;;;4.93;;
16963;SDS011;8598;50.508;10.436;2023-07-29T05:36:43;6.43;;;5.63;;
16963;SDS011;8598;50.508;10.436;2023-07-29T05:39:11;6.93;;;6.33;;
16963;SDS011;8598;50.508;10.436;2023-07-29T05:41:38;7.57;;;5.40;;
16963;SDS011;8598;50.508;10.436;2023-07-29T05:44:05;5.00;;;4.60;;
16963;SDS011;8598;50.508;10.436;2023-07-29T05:46:31;4.60;;;4.20;;
16963;SDS011;8598;50.508;10.436;2023-07-29T05:48:58;5.57;;;4.57;;
16963;SDS011;8598;50.508;10.436;2023-07-29T05:51:25;3.83;;;3.37;;
16963;SDS011;8598;50.508;10.436;2023-07-29T05:53:51;3.53;;;3.23;;
16963;SDS011;8598;50.508;10.436;2023-07-29T05:56:20;4.10;;;3.80;;
16963;SDS011;8598;50.508;10.436;2023-07-29T05:58:47;4.00;;;3.57;;
16963;SDS011;8598;50.508;10.436;2023-07-29T06:01:14;4.93;;;4.53;;
16963;SDS011;8598;50.508;10.436;2023-07-29T06:03:41;3.93;;;3.60;;
16963;SDS011;8598;50.508;10.436;2023-07-29T06:06:08;4.00;;;3.60;;
16963;SDS011;8598;50.508;10.436;2023-07-29T06:08:34;4.90;;;4.00;;
16963;SDS011;8598;50.508;10.436;2023-07-29T06:11:01;4.90;;;4.20;;
16963;SDS011;8598;50.508;10.436;2023-07-29T06:13:29;5.60;;;4.70;;
16963;SDS011;8598;50.508;10.436;2023-07-29T06:15:56;5.63;;;4.70;;
16963;SDS011;8598;50.508;10.436;2023-07-29T06:18:22;4.67;;;4.27;;
16963;SDS011;8598;50.508;10.436;2023-07-29T06:20:49;4.50;;;4.10;;
16963;SDS011;8598;50.508;10.436;2023-07-29T06:23:16;3.93;;;3.47;;
16963;SDS011;8598;50.508;10.436;2023-07-29T06:25:43;3.40;;;3.10;;
16963;SDS011;8598;50.508;10.436;2023-07-29T06:28:09;2.63;;;2.43;;
16963;SDS011;8598;50.508;10.436;2023-07-29T06:30:37;6.00;;;3.87;;
16963;SDS011;8598;50.508;10.436;2023-07-29T06:33:04;3.90;;;3.27;;
16963;SDS011;8598;50.508;10.436;2023-07-29T06:35:31;3.93;;;3.53;;
16963;SDS011;8598;50.508;10.436;2023-07-29T06:37:58;3.43;;;3.13;;
16963;SDS011;8598;50.508;10.436;2023-07-29T06:40:24;3.63;;;3.27;;
16963;SDS011;8598;50.508;10.436;2023-07-29T06:42:51;5.07;;;2.80;;
16963;SDS011;8598;50.508;10.436;2023-07-29T06:45:18;3.77;;;3.00;;
16963;SDS011;8598;50.508;10.436;2023-07-29T06:47:46;3.10;;;2.80;;
16963;SDS011;8598;50.508;10.436;2023-07-29T06:50:12;3.93;;;2.70;;
16963;SDS011;8598;50.508;10.436;2023-07-29T06:52:39;2.50;;;2.30;;
16963;SDS011;8598;50.508;10.436;2023-07-29T06:55:06;3.13;;;2.73;;
16963;SDS011;8598;50.508;10.436;2023-07-29T06:57:33;6.20;;;2.83;;
16963;SDS011;8598;50.508;10.436;2023-07-29T07:00:00;3.47;;;2.40;;
16963;SDS011;8598;50.508;10.436;2023-07-29T07:02:28;3.20;;;2.67;;
16963;SDS011;8598;50.508;10.436;2023-07-29T07:04:56;4.03;;;2.20;;
16963;SDS011;8598;50.508;10.436;2023-07-29T07:07:23;2.10;;;1.90;;
16963;SDS011;8598;50.508;10.436;2023-07-29T07:09:49;2.13;;;1.97;;
16963;SDS011;8598;50.508;10.436;2023-07-29T07:12:16;2.47;;;2.23;;
16963;SDS011;8598;50.508;10.436;2023-07-29T07:14:43;2.97;;;2.67;;
16963;SDS011;8598;50.508;10.436;2023-07-29T07:17:09;4.40;;;2.10;;
16963;SDS011;8598;50.508;10.436;2023-07-29T07:19:36;3.27;;;2.30;;
16963;SDS011;8598;50.508;10.436;2023-07-29T07:22:04;2.43;;;2.23;;
16963;SDS011;8598;50.508;10.436;2023-07-29T07:24:33;2.73;;;2.30;;
16963;SDS011;8598;50.508;10.436;2023-07-29T07:27:00;3.67;;;2.00;;
16963;SDS011;8598;50.508;10.436;2023-07-29T07:29:27;2.37;;;2.17;;
16963;SDS011;8598;50.508;10.436;2023-07-29T07:31:55;3.80;;;2.30;;
16963;SDS011;8598;50.508;10.436;2023-07-29T07:34:22;3.20;;;2.23;;
16963;SDS011;8598;50.508;10.436;2023-07-29T07:36:49;2.63;;;2.10;;
16963;SDS011;8598;50.508;10.436;2023-07-29T07:39:20;2.10;;;1.90;;
16963;SDS011;8598;50.508;10.436;2023-07-29T07:41:47;3.53;;;1.90;;
16963;SDS011;8598;50.508;10.436;2023-07-29T07:44:15;3.07;;;1.80;;
16963;SDS011;8598;50.508;10.436;2023-07-29T07:46:44;3.83;;;2.00;;
16963;SDS011;8598;50.508;10.436;2023-07-29T07:49:11;3.10;;;1.40;;
16963;SDS011;8598;50.508;10.436;2023-07-29T07:51:38;7.57;;;1.80;;
16963;SDS011;8598;50.508;10.436;2023-07-29T07:54:05;2.43;;;1.67;;
16963;SDS011;8598;50.508;10.436;2023-07-29T07:56:36;2.33;;;2.00;;
16963;SDS011;8598;50.508;10.436;2023-07-29T07:59:04;8.43;;;1.90;;
16963;SDS011;8598;50.508;10.436;2023-07-29T08:01:33;5.57;;;1.90;;
16963;SDS011;8598;50.508;10.436;2023-07-29T08:04:06;2.67;;;1.90;;
16963;SDS011;8598;50.508;10.436;2023-07-29T08:06:33;3.87;;;2.00;;
16963;SDS011;8598;50.508;10.436;2023-07-29T08:09:00;4.20;;;2.20;;
16963;SDS011;8598;50.508;10.436;2023-07-29T08:11:28;10.20;;;2.57;;
16963;SDS011;8598;50.508;10.436;2023-07-29T08:13:59;4.30;;;2.20;;
16963;SDS011;8598;50.508;10.436;2023-07-29T08:16:26;7.73;;;2.53;;
16963;SDS011;8598;50.508;10.436;2023-07-29T08:18:54;3.27;;;2.50;;
16963;SDS011;8598;50.508;10.436;2023-07-29T08:21:20;3.13;;;2.57;;
16963;SDS011;8598;50.508;10.436;2023-07-29T08:23:47;4.37;;;2.60;;
16963;SDS011;8598;50.508;10.436;2023-07-29T08:26:15;6.37;;;2.80;;
16963;SDS011;8598;50.508;10.436;2023-07-29T08:28:42;3.37;;;2.50;;
16963;SDS011;8598;50.508;10.436;2023-07-29T08:31:11;4.10;;;2.97;;
16963;SDS011;8598;50.508;10.436;2023-07-29T08:33:38;4.30;;;2.93;;
16963;SDS011;8598;50.508;10.436;2023-07-29T08:36:04;4.40;;;2.23;;
16963;SDS011;8598;50.508;10.436;2023-07-29T08:38:31;4.60;;;2.40;;
16963;SDS011;8598;50.508;10.436;2023-07-29T08:40:59;2.83;;;2.20;;
16963;SDS011;8598;50.508;10.436;2023-07-29T08:43:34;5.03;;;2.47;;
16963;SDS011;8598;50.508;10.436;2023-07-29T08:46:04;2.73;;;2.40;;
16963;SDS011;8598;50.508;10.436;2023-07-29T08:48:36;2.20;;;2.00;;
16963;SDS011;8598;50.508;10.436;2023-07-29T08:51:06;4.73;;;2.80;;
16963;SDS011;8598;50.508;10.436;2023-07-29T08:53:34;3.67;;;3.07;;
16963;SDS011;8598;50.508;10.436;2023-07-29T08:56:01;3.93;;;3.00;;
16963;SDS011;8598;50.508;10.436;2023-07-29T08:58:29;4.23;;;2.80;;
16963;SDS011;8598;50.508;10.436;2023-07-29T09:00:57;4.83;;;3.00;;
16963;SDS011;8598;50.508;10.436;2023-07-29T09:03:23;4.00;;;2.90;;
16963;SDS011;8598;50.508;10.436;2023-07-29T09:05:52;6.07;;;2.37;;
16963;SDS011;8598;50.508;10.436;2023-07-29T09:08:19;4.60;;;2.50;;
16963;SDS011;8598;50.508;10.436;2023-07-29T09:10:47;4.33;;;2.30;;
16963;SDS011;8598;50.508;10.436;2023-07-29T09:13:13;4.67;;;2.30;;
16963;SDS011;8598;50.508;10.436;2023-07-29T09:15:40;2.50;;;2.23;;
16963;SDS011;8598;50.508;10.436;2023-07-29T09:18:10;4.90;;;2.40;;
16963;SDS011;8598;50.508;10.436;2023-07-29T09:20:38;3.80;;;2.70;;
16963;SDS011;8598;50.508;10.436;2023-07-29T09:23:07;3.53;;;3.07;;
16963;SDS011;8598;50.508;10.436;2023-07-29T09:25:35;4.13;;;3.10;;
16963;SDS011;8598;50.508;10.436;2023-07-29T09:28:07;6.13;;;3.20;;
16963;SDS011;8598;50.508;10.436;2023-07-29T09:30:37;6.70;;;3.60;;
16963;SDS011;8598;50.508;10.436;2023-07-29T09:33:04;4.50;;;3.20;;
16963;SDS011;8598;50.508;10.436;2023-07-29T09:35:32;4.17;;;3.77;;
16963;SDS011;8598;50.508;10.436;2023-07-29T09:38:00;4.67;;;3.03;;
16963;SDS011;8598;50.508;10.436;2023-07-29T09:40:28;6.40;;;2.80;;
16963;SDS011;8598;50.508;10.436;2023-07-29T09:43:01;5.20;;;2.33;;
16963;SDS011;8598;50.508;10.436;2023-07-29T09:45:29;3.03;;;2.20;;
16963;SDS011;8598;50.508;10.436;2023-07-29T09:47:57;3.33;;;2.23;;
16963;SDS011;8598;50.508;10.436;2023-07-29T09:50:24;6.17;;;4.40;;
16963;SDS011;8598;50.508;10.436;2023-07-29T09:52:51;3.03;;;1.80;;
16963;SDS011;8598;50.508;10.436;2023-07-29T09:55:19;3.90;;;2.10;;
16963;SDS011;8598;50.508;10.436;2023-07-29T09:57:48;2.63;;;1.80;;
16963;SDS011;8598;50.508;10.436;2023-07-29T10:00:19;3.17;;;1.77;;
16963;SDS011;8598;50.508;10.436;2023-07-29T10:02:46;1.60;;;1.50;;
16963;SDS011;8598;50.508;10.436;2023-07-29T10:05:13;2.23;;;1.70;;
16963;SDS011;8598;50.508;10.436;2023-07-29T10:07:41;1.97;;;1.40;;
16963;SDS011;8598;50.508;10.436;2023-07-29T10:10:08;2.33;;;1.30;;
16963;SDS011;8598;50.508;10.436;2023-07-29T10:12:35;2.80;;;1.50;;
16963;SDS011;8598;50.508;10.436;2023-07-29T10:15:04;1.40;;;1.30;;
16963;SDS011;8598;50.508;10.436;2023-07-29T10:17:33;1.33;;;1.20;;
16963;SDS011;8598;50.508;10.436;2023-07-29T10:20:01;4.80;;;1.30;;
16963;SDS011;8598;50.508;10.436;2023-07-29T10:22:33;1.23;;;1.13;;
16963;SDS011;8598;50.508;10.436;2023-07-29T10:25:03;2.70;;;1.40;;
16963;SDS011;8598;50.508;10.436;2023-07-29T10:27:31;1.20;;;1.10;;
16963;SDS011;8598;50.508;10.436;2023-07-29T10:30:13;2.00;;;1.33;;
16963;SDS011;8598;50.508;10.436;2023-07-29T10:32:41;1.20;;;1.10;;
16963;SDS011;8598;50.508;10.436;2023-07-29T10:35:10;2.30;;;1.37;;
16963;SDS011;8598;50.508;10.436;2023-07-29T10:37:37;1.13;;;1.03;;
16963;SDS011;8598;50.508;10.436;2023-07-29T10:40:05;1.50;;;1.30;;
16963;SDS011;8598;50.508;10.436;2023-07-29T10:42:35;1.80;;;1.50;;
16963;SDS011;8598;50.508;10.436;2023-07-29T10:47:45;2.43;;;1.20;;
16963;SDS011;8598;50.508;10.436;2023-07-29T10:50:17;1.30;;;1.20;;
16963;SDS011;8598;50.508;10.436;2023-07-29T10:52:46;1.53;;;1.43;;
16963;SDS011;8598;50.508;10.436;2023-07-29T10:55:23;3.30;;;1.30;;
16963;SDS011;8598;50.508;10.436;2023-07-29T10:57:51;1.57;;;1.47;;
16963;SDS011;8598;50.508;10.436;2023-07-29T11:00:20;1.20;;;1.10;;
16963;SDS011;8598;50.508;10.436;2023-07-29T11:02:56;1.57;;;1.30;;
16963;SDS011;8598;50.508;10.436;2023-07-29T11:05:25;1.87;;;1.30;;
16963;SDS011;8598;50.508;10.436;2023-07-29T11:07:51;2.23;;;1.50;;
16963;SDS011;8598;50.508;10.436;2023-07-29T11:10:18;6.10;;;1.40;;
16963;SDS011;8598;50.508;10.436;2023-07-29T11:12:46;1.60;;;1.50;;
16963;SDS011;8598;50.508;10.436;2023-07-29T11:15:21;2.00;;;1.80;;
16963;SDS011;8598;50.508;10.436;2023-07-29T11:17:49;1.50;;;1.40;;
16963;SDS011;8598;50.508;10.436;2023-07-29T11:20:18;1.27;;;1.17;;
16963;SDS011;8598;50.508;10.436;2023-07-29T11:22:46;3.30;;;1.20;;
16963;SDS011;8598;50.508;10.436;2023-07-29T11:25:13;2.20;;;1.10;;
16963;SDS011;8598;50.508;10.436;2023-07-29T11:27:42;4.10;;;1.10;;
16963;SDS011;8598;50.508;10.436;2023-07-29T11:30:10;1.40;;;1.20;;
16963;SDS011;8598;50.508;10.436;2023-07-29T11:32:40;1.20;;;1.10;;
16963;SDS011;8598;50.508;10.436;2023-07-29T11:35:09;1.13;;;1.03;;
16963;SDS011;8598;50.508;10.436;2023-07-29T11:37:38;1.50;;;1.40;;
16963;SDS011;8598;50.508;10.436;2023-07-29T11:40:05;2.40;;;1.10;;
16963;SDS011;8598;50.508;10.436;2023-07-29T11:42:34;1.23;;;1.13;;
16963;SDS011;8598;50.508;10.436;2023-07-29T11:45:01;1.70;;;0.97;;
16963;SDS011;8598;50.508;10.436;2023-07-29T11:47:29;1.73;;;1.17;;
16963;SDS011;8598;50.508;10.436;2023-07-29T11:49:59;1.30;;;1.20;;
16963;SDS011;8598;50.508;10.436;2023-07-29T11:52:27;1.50;;;1.20;;
16963;SDS011;8598;50.508;10.436;2023-07-29T11:54:54;2.00;;;1.23;;
16963;SDS011;8598;50.508;10.436;2023-07-29T11:57:21;1.30;;;1.20;;
16963;SDS011;8598;50.508;10.436;2023-07-29T11:59:47;1.57;;;1.23;;
16963;SDS011;8598;50.508;10.436;2023-07-29T12:02:16;1.30;;;1.20;;
16963;SDS011;8598;50.508;10.436;2023-07-29T12:04:46;3.37;;;1.30;;
16963;SDS011;8598;50.508;10.436;2023-07-29T12:07:18;1.30;;;1.20;;
16963;SDS011;8598;50.508;10.436;2023-07-29T12:09:45;1.37;;;1.27;;
16963;SDS011;8598;50.508;10.436;2023-07-29T12:12:13;1.30;;;1.20;;
16963;SDS011;8598;50.508;10.436;2023-07-29T12:14:43;2.30;;;1.33;;
16963;SDS011;8598;50.508;10.436;2023-07-29T12:17:11;1.10;;;1.00;;
16963;SDS011;8598;50.508;10.436;2023-07-29T12:19:38;3.37;;;1.47;;
16963;SDS011;8598;50.508;10.436;2023-07-29T12:22:07;2.03;;;1.27;;
16963;SDS011;8598;50.508;10.436;2023-07-29T12:24:37;1.53;;;1.30;;
16963;SDS011;8598;50.508;10.436;2023-07-29T12:27:04;3.30;;;1.10;;
16963;SDS011;8598;50.508;10.436;2023-07-29T12:29:32;1.50;;;1.20;;
16963;SDS011;8598;50.508;10.436;2023-07-29T12:32:05;1.50;;;1.40;;
16963;SDS011;8598;50.508;10.436;2023-07-29T12:34:32;1.30;;;1.20;;
16963;SDS011;8598;50.508;10.436;2023-07-29T12:36:59;3.70;;;2.00;;
16963;SDS011;8598;50.508;10.436;2023-07-29T12:39:30;1.33;;;1.20;;
16963;SDS011;8598;50.508;10.436;2023-07-29T12:42:00;2.00;;;1.43;;
16963;SDS011;8598;50.508;10.436;2023-07-29T12:44:29;1.47;;;1.37;;
16963;SDS011;8598;50.508;10.436;2023-07-29T12:46:57;1.63;;;1.30;;
16963;SDS011;8598;50.508;10.436;2023-07-29T12:49:23;1.53;;;1.30;;
16963;SDS011;8598;50.508;10.436;2023-07-29T12:51:51;1.73;;;1.47;;
16963;SDS011;8598;50.508;10.436;2023-07-29T12:54:18;2.13;;;1.30;;
16963;SDS011;8598;50.508;10.436;2023-07-29T12:56:44;1.30;;;1.17;;
16963;SDS011;8598;50.508;10.436;2023-07-29T12:59:12;1.27;;;1.00;;
16963;SDS011;8598;50.508;10.436;2023-07-29T13:01:39;1.40;;;1.30;;
16963;SDS011;8598;50.508;10.436;2023-07-29T13:04:06;1.80;;;1.27;;
16963;SDS011;8598;50.508;10.436;2023-07-29T13:06:33;1.67;;;1.20;;
16963;SDS011;8598;50.508;10.436;2023-07-29T13:08:59;2.63;;;1.10;;
16963;SDS011;8598;50.508;10.436;2023-07-29T13:11:26;1.97;;;1.10;;
16963;SDS011;8598;50.508;10.436;2023-07-29T13:13:53;1.27;;;1.17;;
16963;SDS011;8598;50.508;10.436;2023-07-29T13:16:21;1.93;;;1.33;;
16963;SDS011;8598;50.508;10.436;2023-07-29T13:18:48;3.63;;;1.50;;
16963;SDS011;8598;50.508;10.436;2023-07-29T13:21:14;2.43;;;1.43;;
16963;SDS011;8598;50.508;10.436;2023-07-29T13:23:41;2.67;;;1.10;;
16963;SDS011;8598;50.508;10.436;2023-07-29T13:26:08;2.83;;;2.00;;
16963;SDS011;8598;50.508;10.436;2023-07-29T13:28:36;1.70;;;1.17;;
16963;SDS011;8598;50.508;10.436;2023-07-29T13:31:02;1.50;;;1.30;;
16963;SDS011;8598;50.508;10.436;2023-07-29T13:33:30;2.60;;;1.30;;
16963;SDS011;8598;50.508;10.436;2023-07-29T13:35:59;1.77;;;1.50;;
16963;SDS011;8598;50.508;10.436;2023-07-29T13:38:27;1.90;;;1.50;;
16963;SDS011;8598;50.508;10.436;2023-07-29T13:40:54;1.97;;;1.40;;
16963;SDS011;8598;50.508;10.436;2023-07-29T13:43:21;3.07;;;1.97;;
16963;SDS011;8598;50.508;10.436;2023-07-29T13:45:47;1.60;;;1.50;;
16963;SDS011;8598;50.508;10.436;2023-07-29T13:48:15;1.57;;;1.10;;
16963;SDS011;8598;50.508;10.436;2023-07-29T13:50:43;6.67;;;1.30;;
16963;SDS011;8598;50.508;10.436;2023-07-29T13:53:09;3.87;;;1.33;;
16963;SDS011;8598;50.508;10.436;2023-07-29T13:55:36;2.40;;;1.40;;
16963;SDS011;8598;50.508;10.436;2023-07-29T13:58:03;3.47;;;2.17;;
16963;SDS011;8598;50.508;10.436;2023-07-29T14:00:30;3.93;;;1.50;;
16963;SDS011;8598;50.508;10.436;2023-07-29T14:02:56;5.17;;;2.17;;
16963;SDS011;8598;50.508;10.436;2023-07-29T14:05:23;2.90;;;1.10;;
16963;SDS011;8598;50.508;10.436;2023-07-29T14:07:51;6.13;;;1.50;;
16963;SDS011;8598;50.508;10.436;2023-07-29T14:10:18;4.67;;;1.13;;
16963;SDS011;8598;50.508;10.436;2023-07-29T14:12:45;1.40;;;1.17;;
16963;SDS011;8598;50.508;10.436;2023-07-29T14:15:11;6.30;;;1.60;;
16963;SDS011;8598;50.508;10.436;2023-07-29T14:17:38;6.10;;;1.27;;
16963;SDS011;8598;50.508;10.436;2023-07-29T14:20:05;3.43;;;1.40;;
16963;SDS011;8598;50.508;10.436;2023-07-29T14:22:33;2.83;;;1.40;;
16963;SDS011;8598;50.508;10.436;2023-07-29T14:25:01;2.83;;;1.60;;
16963;SDS011;8598;50.508;10.436;2023-07-29T14:27:28;2.30;;;1.50;;
16963;SDS011;8598;50.508;10.436;2023-07-29T14:29:55;2.17;;;1.57;;
16963;SDS011;8598;50.508;10.436;2023-07-29T14:32:22;2.17;;;1.30;;
16963;SDS011;8598;50.508;10.436;2023-07-29T14:34:49;1.70;;;1.30;;
16963;SDS011;8598;50.508;10.436;2023-07-29T14:37:16;1.87;;;1.10;;
16963;SDS011;8598;50.508;10.436;2023-07-29T14:39:42;3.93;;;1.37;;
16963;SDS011;8598;50.508;10.436;2023-07-29T14:42:10;2.03;;;1.20;;
16963;SDS011;8598;50.508;10.436;2023-07-29T14:44:38;2.80;;;1.03;;
16963;SDS011;8598;50.508;10.436;2023-07-29T14:47:05;6.47;;;1.20;;
16963;SDS011;8598;50.508;10.436;2023-07-29T14:49:33;2.53;;;1.20;;
16963;SDS011;8598;50.508;10.436;2023-07-29T14:52:00;1.27;;;0.83;;
16963;SDS011;8598;50.508;10.436;2023-07-29T14:54:27;1.03;;;0.70;;